createdAt,value
2023-01-26T00:00:21.046Z,25.89
2023-01-26T00:01:20.980Z,25.91
2023-01-26T00:02:21.017Z,25.89
2023-01-26T00:03:20.873Z,25.89
2023-01-26T00:04:20.814Z,25.89
2023-01-26T00:05:20.767Z,25.92
2023-01-26T00:06:20.716Z,25.92
2023-01-26T00:07:20.668Z,25.88
2023-01-26T00:08:20.579Z,25.89
2023-01-26T00:09:20.559Z,25.89
2023-01-26T00:10:20.456Z,25.88
2023-01-26T00:11:20.421Z,25.88
2023-01-26T00:12:20.346Z,25.88
2023-01-26T00:13:20.294Z,25.89
2023-01-26T00:14:20.242Z,25.88
2023-01-26T00:15:20.187Z,25.89
2023-01-26T00:16:20.146Z,25.87
2023-01-26T00:17:20.040Z,25.88
2023-01-26T00:18:20.012Z,25.87
2023-01-26T00:19:19.962Z,25.87
2023-01-26T00:20:19.879Z,25.88
2023-01-26T00:21:19.893Z,25.88
2023-01-26T00:22:19.802Z,25.87
2023-01-26T00:23:19.768Z,25.89
2023-01-26T00:24:19.718Z,25.88
2023-01-26T00:25:19.636Z,25.88
2023-01-26T00:26:19.559Z,25.88
2023-01-26T00:27:19.522Z,25.88
2023-01-26T00:28:19.449Z,25.89
2023-01-26T00:29:19.386Z,25.89
2023-01-26T00:30:19.334Z,25.91
2023-01-26T00:31:19.337Z,25.89
2023-01-26T00:32:19.211Z,25.87
2023-01-26T00:33:19.153Z,25.88
2023-01-26T00:34:19.113Z,25.88
2023-01-26T00:35:19.028Z,25.87
2023-01-26T00:36:19.009Z,25.88
2023-01-26T00:37:18.971Z,25.88
2023-01-26T00:38:18.890Z,25.91
2023-01-26T00:39:18.838Z,25.88
2023-01-26T00:40:18.802Z,25.88
2023-01-26T00:41:18.722Z,25.85
2023-01-26T00:42:18.699Z,25.87
2023-01-26T00:43:18.593Z,25.88
2023-01-26T00:44:18.597Z,25.87
2023-01-26T00:45:18.524Z,25.87
2023-01-26T00:46:18.471Z,25.88
2023-01-26T00:47:18.400Z,25.85
2023-01-26T00:48:18.342Z,25.87
2023-01-26T00:49:18.289Z,25.85
2023-01-26T00:50:18.203Z,25.88
2023-01-26T00:51:18.160Z,25.88
2023-01-26T00:52:18.118Z,25.85
2023-01-26T00:53:18.038Z,25.88
2023-01-26T00:54:17.966Z,25.85
2023-01-26T00:55:17.942Z,25.84
2023-01-26T00:56:17.907Z,25.87
2023-01-26T00:57:17.828Z,25.87
2023-01-26T00:58:17.812Z,25.87
2023-01-26T00:59:17.753Z,25.87
2023-01-26T01:00:17.670Z,25.87
2023-01-26T01:01:17.642Z,25.87
2023-01-26T01:02:17.630Z,25.87
2023-01-26T01:03:17.517Z,25.87
2023-01-26T01:04:17.480Z,25.88
2023-01-26T01:05:17.429Z,25.89
2023-01-26T01:06:17.398Z,25.87
2023-01-26T01:07:17.323Z,25.85
2023-01-26T01:08:17.285Z,25.88
2023-01-26T01:09:17.256Z,25.87
2023-01-26T01:10:17.190Z,25.87
2023-01-26T01:11:17.167Z,25.87
2023-01-26T01:12:17.115Z,25.87
2023-01-26T01:13:17.022Z,25.85
2023-01-26T01:14:16.982Z,25.84
2023-01-26T01:15:16.931Z,25.85
2023-01-26T01:16:17.018Z,25.84
2023-01-26T01:17:16.814Z,25.85
2023-01-26T01:18:16.747Z,25.84
2023-01-26T01:19:16.734Z,25.84
2023-01-26T01:20:16.672Z,25.85
2023-01-26T01:21:16.607Z,25.84
2023-01-26T01:22:16.520Z,25.87
2023-01-26T01:23:16.467Z,25.82
2023-01-26T01:24:16.430Z,25.85
2023-01-26T01:25:16.335Z,25.82
2023-01-26T01:26:16.319Z,25.84
2023-01-26T01:27:16.237Z,25.82
2023-01-26T01:28:16.175Z,25.84
2023-01-26T01:29:16.129Z,25.84
2023-01-26T01:30:16.082Z,25.87
2023-01-26T01:31:16.229Z,25.87
2023-01-26T01:32:16.017Z,25.81
2023-01-26T01:33:15.937Z,25.85
2023-01-26T01:34:15.897Z,25.84
2023-01-26T01:35:15.854Z,25.82
2023-01-26T01:36:15.806Z,25.84
2023-01-26T01:37:15.767Z,25.82
2023-01-26T01:38:15.668Z,25.82
2023-01-26T01:40:25.686Z,25.78
2023-01-26T01:41:25.680Z,25.80
2023-01-26T01:42:25.683Z,25.81
2023-01-26T01:43:25.687Z,25.84
2023-01-26T01:44:25.669Z,25.82
2023-01-26T01:45:25.669Z,25.85
2023-01-26T01:46:25.689Z,25.87
2023-01-26T01:47:25.668Z,25.87
2023-01-26T01:48:25.652Z,25.88
2023-01-26T01:49:25.672Z,25.87
2023-01-26T01:50:25.662Z,25.88
2023-01-26T01:51:25.641Z,25.89
2023-01-26T01:52:25.651Z,25.92
2023-01-26T01:53:25.630Z,25.94
2023-01-26T01:54:25.613Z,25.94
2023-01-26T01:55:25.698Z,25.94
2023-01-26T01:56:25.654Z,25.95
2023-01-26T01:57:25.631Z,25.95
2023-01-26T01:58:25.638Z,25.98
2023-01-26T01:59:25.640Z,26.01
2023-01-26T02:00:25.650Z,26.01
2023-01-26T02:01:25.633Z,26.05
2023-01-26T02:02:25.647Z,26.05
2023-01-26T02:03:25.632Z,26.04
2023-01-26T02:04:25.607Z,26.09
2023-01-26T02:05:25.626Z,26.11
2023-01-26T02:06:25.634Z,26.11
2023-01-26T02:07:25.623Z,26.12
2023-01-26T02:08:25.602Z,26.18
2023-01-26T02:09:25.580Z,26.18
2023-01-26T02:10:25.576Z,26.18
2023-01-26T02:11:25.590Z,26.21
2023-01-26T02:12:25.562Z,26.21
2023-01-26T02:13:25.582Z,26.21
2023-01-26T02:14:25.567Z,26.23
2023-01-26T02:15:25.564Z,26.26
2023-01-26T02:16:25.558Z,26.29
2023-01-26T02:17:25.510Z,26.29
2023-01-26T02:18:25.614Z,26.31
2023-01-26T02:19:25.510Z,26.31
2023-01-26T02:20:25.493Z,26.33
2023-01-26T02:21:25.582Z,26.36
2023-01-26T02:22:25.498Z,26.36
2023-01-26T02:23:25.451Z,26.38
2023-01-26T02:24:25.603Z,26.42
2023-01-26T02:25:25.471Z,26.42
2023-01-26T02:26:25.457Z,26.39
2023-01-26T02:27:25.437Z,26.42
2023-01-26T02:28:25.451Z,26.46
2023-01-26T02:29:25.413Z,26.47
2023-01-26T02:30:25.416Z,26.46
2023-01-26T02:31:25.440Z,26.47
2023-01-26T02:32:25.387Z,26.49
2023-01-26T02:33:25.395Z,26.52
2023-01-26T02:34:25.383Z,26.50
2023-01-26T02:35:25.376Z,26.52
2023-01-26T02:36:25.371Z,26.53
2023-01-26T02:37:25.322Z,26.54
2023-01-26T02:38:25.362Z,26.54
2023-01-26T02:39:25.338Z,26.54
2023-01-26T02:40:25.313Z,26.54
2023-01-26T02:41:25.311Z,26.54
2023-01-26T02:42:25.298Z,26.56
2023-01-26T02:43:25.285Z,26.59
2023-01-26T02:44:25.267Z,26.59
2023-01-26T02:45:25.264Z,26.57
2023-01-26T02:46:25.276Z,26.60
2023-01-26T02:47:25.259Z,26.62
2023-01-26T02:48:25.217Z,26.62
2023-01-26T02:49:25.241Z,26.63
2023-01-26T02:50:25.234Z,26.63
2023-01-26T02:51:25.190Z,26.64
2023-01-26T02:52:25.196Z,26.63
2023-01-26T02:53:25.176Z,26.64
2023-01-26T02:54:25.155Z,26.64
2023-01-26T02:55:25.258Z,26.67
2023-01-26T02:56:25.147Z,26.67
2023-01-26T02:57:25.171Z,26.67
2023-01-26T02:58:25.232Z,26.66
2023-01-26T02:59:25.224Z,26.66
2023-01-26T03:00:25.216Z,26.69
2023-01-26T03:01:25.222Z,26.69
2023-01-26T03:02:25.306Z,26.67
2023-01-26T03:03:25.275Z,26.67
2023-01-26T03:04:25.290Z,26.70
2023-01-26T03:05:25.313Z,26.72
2023-01-26T03:06:25.442Z,26.70
2023-01-26T03:07:25.348Z,26.70
2023-01-26T03:08:25.356Z,26.70
2023-01-26T03:09:25.376Z,26.72
2023-01-26T03:10:25.407Z,26.74
2023-01-26T03:11:25.403Z,26.73
2023-01-26T03:12:25.432Z,26.73
2023-01-26T03:13:25.456Z,26.74
2023-01-26T03:14:25.490Z,26.73
2023-01-26T03:15:25.521Z,26.76
2023-01-26T03:16:25.587Z,26.76
2023-01-26T03:17:25.531Z,26.76
2023-01-26T03:18:25.567Z,26.74
2023-01-26T03:19:25.580Z,26.76
2023-01-26T03:20:25.614Z,26.77
2023-01-26T03:21:25.668Z,26.76
2023-01-26T03:22:25.687Z,26.80
2023-01-26T03:23:25.735Z,26.80
2023-01-26T03:24:25.774Z,26.79
2023-01-26T03:25:25.788Z,26.83
2023-01-26T03:26:25.824Z,26.83
2023-01-26T03:27:25.888Z,26.82
2023-01-26T03:28:25.894Z,26.82
2023-01-26T03:29:25.939Z,26.80
2023-01-26T03:30:26.000Z,26.82
2023-01-26T03:31:26.055Z,26.80
2023-01-26T03:32:26.407Z,26.82
2023-01-26T03:33:26.051Z,26.82
2023-01-26T03:34:26.063Z,26.80
2023-01-26T03:35:26.048Z,26.79
2023-01-26T03:36:26.122Z,26.80
2023-01-26T03:37:26.122Z,26.80
2023-01-26T03:38:26.143Z,26.82
2023-01-26T03:39:26.163Z,26.83
2023-01-26T03:40:26.185Z,26.84
2023-01-26T03:41:26.188Z,26.86
2023-01-26T03:42:26.226Z,26.82
2023-01-26T03:43:26.254Z,26.83
2023-01-26T03:44:26.260Z,26.86
2023-01-26T03:45:26.256Z,26.84
2023-01-26T03:46:26.320Z,26.84
2023-01-26T03:47:26.347Z,26.84
2023-01-26T03:48:26.358Z,26.83
2023-01-26T03:49:26.410Z,26.84
2023-01-26T03:50:26.458Z,26.87
2023-01-26T03:53:26.507Z,26.87
2023-01-26T03:54:26.561Z,26.87
2023-01-26T03:55:26.581Z,26.87
2023-01-26T03:56:26.592Z,26.86
2023-01-26T03:57:26.651Z,26.86
2023-01-26T03:58:26.641Z,26.87
2023-01-26T03:59:26.653Z,26.86
2023-01-26T04:00:26.757Z,26.89
2023-01-26T04:01:26.753Z,26.89
2023-01-26T04:02:26.741Z,26.91
2023-01-26T04:03:26.769Z,26.91
2023-01-26T04:04:26.808Z,26.91
2023-01-26T04:05:26.823Z,26.94
2023-01-26T04:06:26.828Z,26.94
2023-01-26T04:07:26.874Z,26.95
2023-01-26T04:08:26.895Z,26.93
2023-01-26T04:09:26.939Z,26.95
2023-01-26T04:10:26.939Z,26.95
2023-01-26T04:11:26.996Z,26.94
2023-01-26T04:12:27.010Z,26.95
2023-01-26T04:13:27.050Z,26.97
2023-01-26T04:14:27.094Z,26.97
2023-01-26T04:15:27.147Z,26.94
2023-01-26T04:16:27.255Z,26.93
2023-01-26T04:17:27.213Z,26.93
2023-01-26T04:18:27.241Z,26.93
2023-01-26T04:19:27.352Z,26.94
2023-01-26T04:20:27.353Z,26.93
2023-01-26T04:21:27.394Z,26.91
2023-01-26T04:22:27.419Z,26.90
2023-01-26T04:23:27.502Z,26.91
2023-01-26T04:24:27.577Z,26.91
2023-01-26T04:25:27.614Z,26.93
2023-01-26T04:26:27.649Z,26.91
2023-01-26T04:27:27.655Z,26.91
2023-01-26T04:28:27.702Z,26.90
2023-01-26T04:29:27.743Z,26.91
2023-01-26T04:30:27.867Z,26.91
2023-01-26T04:31:27.883Z,26.93
2023-01-26T04:32:27.902Z,26.93
2023-01-26T04:33:27.952Z,26.93
2023-01-26T04:34:27.968Z,26.94
2023-01-26T04:35:27.983Z,26.91
2023-01-26T04:36:28.032Z,26.93
2023-01-26T04:37:28.072Z,26.93
2023-01-26T04:38:28.090Z,26.93
2023-01-26T04:39:28.118Z,26.94
2023-01-26T04:40:28.158Z,26.91
2023-01-26T04:41:28.205Z,26.93
2023-01-26T04:42:28.206Z,26.94
2023-01-26T04:43:28.260Z,26.94
2023-01-26T04:44:28.291Z,26.94
2023-01-26T04:45:28.311Z,26.95
2023-01-26T04:46:28.350Z,26.94
2023-01-26T04:47:29.485Z,26.94
2023-01-26T04:48:28.382Z,26.95
2023-01-26T04:49:28.422Z,26.95
2023-01-26T04:54:28.530Z,26.95
2023-01-26T04:55:28.504Z,26.94
2023-01-26T04:56:28.502Z,26.95
2023-01-26T04:57:28.548Z,26.97
2023-01-26T04:58:28.518Z,26.94
2023-01-26T04:59:28.622Z,26.97
2023-01-26T05:00:28.634Z,26.94
2023-01-26T05:01:28.660Z,26.94
2023-01-26T05:02:28.575Z,26.94
2023-01-26T05:03:28.591Z,26.94
2023-01-26T05:04:28.668Z,26.91
2023-01-26T05:05:28.638Z,26.93
2023-01-26T05:06:28.650Z,26.91
2023-01-26T05:07:28.659Z,26.91
2023-01-26T05:10:28.727Z,26.91
2023-01-26T05:11:28.725Z,26.90
2023-01-26T05:12:28.770Z,26.87
2023-01-26T05:13:28.755Z,26.89
2023-01-26T05:14:28.771Z,26.87
2023-01-26T05:15:28.808Z,26.86
2023-01-26T05:16:28.856Z,26.84
2023-01-26T05:17:28.870Z,26.84
2023-01-26T05:18:28.870Z,26.86
2023-01-26T05:19:28.882Z,26.87
2023-01-26T05:20:28.900Z,26.87
2023-01-26T05:21:28.886Z,26.84
2023-01-26T05:22:28.929Z,26.83
2023-01-26T05:23:28.922Z,26.84
2023-01-26T05:24:28.937Z,26.83
2023-01-26T05:25:28.943Z,26.82
2023-01-26T05:26:28.960Z,26.83
2023-01-26T05:27:28.983Z,26.84
2023-01-26T05:28:29.025Z,26.83
2023-01-26T05:29:29.012Z,26.83
2023-01-26T05:30:29.055Z,26.84
2023-01-26T05:31:29.137Z,26.84
2023-01-26T05:32:29.060Z,26.84
2023-01-26T05:33:29.117Z,26.83
2023-01-26T05:34:29.146Z,26.82
2023-01-26T05:35:29.176Z,26.84
2023-01-26T05:36:29.222Z,26.83
2023-01-26T05:37:29.279Z,26.84
2023-01-26T05:38:29.271Z,26.83
2023-01-26T05:39:29.315Z,26.83
2023-01-26T05:40:29.309Z,26.84
2023-01-26T05:41:29.368Z,26.83
2023-01-26T05:42:29.377Z,26.86
2023-01-26T05:43:29.392Z,26.83
2023-01-26T05:44:29.420Z,26.84
2023-01-26T05:45:29.524Z,26.84
2023-01-26T05:46:29.496Z,26.83
2023-01-26T05:47:29.504Z,26.83
2023-01-26T05:48:29.519Z,26.86
2023-01-26T05:49:29.524Z,26.82
2023-01-26T05:50:29.570Z,26.83
2023-01-26T05:51:29.570Z,26.86
2023-01-26T05:52:29.595Z,26.82
2023-01-26T05:53:29.606Z,26.86
2023-01-26T05:54:29.581Z,26.83
2023-01-26T05:55:29.613Z,26.84
2023-01-26T05:56:29.623Z,26.83
2023-01-26T05:57:29.669Z,26.82
2023-01-26T05:58:29.694Z,26.84
2023-01-26T05:59:29.687Z,26.84
2023-01-26T06:00:29.710Z,26.83
2023-01-26T06:02:29.775Z,26.83
2023-01-26T06:03:29.706Z,26.83
2023-01-26T06:04:29.714Z,26.83
2023-01-26T06:05:29.688Z,26.83
2023-01-26T06:06:29.704Z,26.82
2023-01-26T06:07:29.679Z,26.83
2023-01-26T06:08:29.673Z,26.86
2023-01-26T06:09:29.708Z,26.82
2023-01-26T06:10:29.607Z,26.82
2023-01-26T06:11:29.639Z,26.82
2023-01-26T06:12:29.626Z,26.82
2023-01-26T06:13:29.613Z,26.80
2023-01-26T06:14:29.612Z,26.82
2023-01-26T06:15:29.578Z,26.83
2023-01-26T06:16:29.620Z,26.82
2023-01-26T06:17:29.566Z,26.82
2023-01-26T06:18:29.539Z,26.83
2023-01-26T06:19:29.539Z,26.86
2023-01-26T06:20:29.553Z,26.83
2023-01-26T06:21:29.543Z,26.82
2023-01-26T06:22:29.549Z,26.84
2023-01-26T06:23:29.493Z,26.82
2023-01-26T06:24:29.501Z,26.80
2023-01-26T06:25:29.497Z,26.83
2023-01-26T06:26:29.485Z,26.83
2023-01-26T06:27:29.465Z,26.86
2023-01-26T06:28:29.491Z,26.83
2023-01-26T06:29:29.429Z,26.83
2023-01-26T06:30:29.545Z,26.83
2023-01-26T06:31:29.670Z,26.82
2023-01-26T06:32:29.455Z,26.82
2023-01-26T06:33:29.410Z,26.80
2023-01-26T06:34:29.418Z,26.82
2023-01-26T06:35:29.997Z,26.84
2023-01-26T06:36:29.392Z,26.86
2023-01-26T06:37:29.386Z,26.83
2023-01-26T06:38:29.377Z,26.86
2023-01-26T06:39:29.360Z,26.87
2023-01-26T06:40:29.356Z,26.86
2023-01-26T06:41:29.328Z,26.86
2023-01-26T06:42:29.288Z,26.89
2023-01-26T06:43:29.297Z,26.89
2023-01-26T06:44:29.305Z,26.90
2023-01-26T06:45:30.011Z,26.89
2023-01-26T06:46:36.289Z,26.89
2023-01-26T06:47:29.266Z,26.91
2023-01-26T06:48:29.247Z,26.91
2023-01-26T06:49:29.239Z,26.91
2023-01-26T06:50:29.233Z,26.93
2023-01-26T06:51:29.183Z,26.93
2023-01-26T06:52:29.199Z,26.90
2023-01-26T06:53:29.208Z,26.94
2023-01-26T06:54:29.194Z,26.93
2023-01-26T06:55:29.180Z,26.95
2023-01-26T06:56:29.159Z,26.93
2023-01-26T06:57:29.164Z,26.94
2023-01-26T06:58:29.546Z,26.95
2023-01-26T06:59:29.498Z,26.95
2023-01-26T07:00:29.128Z,26.97
2023-01-26T07:01:29.132Z,26.95
2023-01-26T07:02:30.071Z,26.98
2023-01-26T07:03:29.535Z,26.95
2023-01-26T07:04:29.121Z,26.95
2023-01-26T07:05:29.121Z,26.98
2023-01-26T07:06:29.088Z,27.00
2023-01-26T07:07:29.095Z,26.98
2023-01-26T07:08:29.563Z,26.98
2023-01-26T07:09:29.078Z,27.00
2023-01-26T07:10:29.051Z,27.00
2023-01-26T07:11:29.069Z,27.03
2023-01-26T07:12:29.025Z,27.01
2023-01-26T07:13:29.032Z,27.01
2023-01-26T07:14:29.010Z,27.01
2023-01-26T07:15:29.057Z,27.01
2023-01-26T07:16:29.131Z,27.03
2023-01-26T07:17:29.027Z,27.01
2023-01-26T07:18:29.044Z,27.01
2023-01-26T07:19:29.055Z,26.98
2023-01-26T07:20:29.107Z,27.00
2023-01-26T07:21:29.112Z,26.98
2023-01-26T07:22:29.171Z,26.98
2023-01-26T07:23:29.218Z,27.01
2023-01-26T07:24:29.288Z,27.00
2023-01-26T07:25:29.299Z,27.01
2023-01-26T07:26:29.351Z,27.01
2023-01-26T07:27:29.381Z,27.00
2023-01-26T07:28:29.436Z,27.00
2023-01-26T07:29:29.432Z,27.00
2023-01-26T07:30:29.508Z,27.01
2023-01-26T07:31:29.583Z,27.00
2023-01-26T07:32:29.578Z,27.01
2023-01-26T07:33:29.614Z,26.98
2023-01-26T07:34:30.039Z,26.98
2023-01-26T07:35:29.731Z,27.00
2023-01-26T07:36:29.764Z,27.00
2023-01-26T07:37:29.790Z,27.00
2023-01-26T07:38:29.818Z,27.00
2023-01-26T07:39:30.095Z,27.00
2023-01-26T07:40:29.940Z,27.03
2023-01-26T07:41:29.906Z,27.03
2023-01-26T07:42:29.999Z,27.01
2023-01-26T07:43:30.004Z,27.04
2023-01-26T07:44:30.077Z,27.01
2023-01-26T07:45:30.115Z,27.00
2023-01-26T07:46:30.248Z,26.97
2023-01-26T07:47:30.156Z,27.00
2023-01-26T07:48:30.209Z,26.97
2023-01-26T07:49:30.238Z,26.98
2023-01-26T07:50:30.353Z,26.98
2023-01-26T07:51:30.310Z,27.01
2023-01-26T07:52:30.360Z,26.98
2023-01-26T07:53:30.395Z,26.97
2023-01-26T07:54:30.421Z,27.01
2023-01-26T07:55:30.469Z,26.98
2023-01-26T07:56:30.507Z,26.98
2023-01-26T07:57:30.566Z,27.01
2023-01-26T07:58:30.584Z,27.00
2023-01-26T07:59:30.608Z,27.01
2023-01-26T08:00:30.690Z,27.03
2023-01-26T08:01:30.704Z,27.07
2023-01-26T08:02:30.786Z,27.05
2023-01-26T08:03:30.748Z,27.07
2023-01-26T08:04:31.044Z,27.07
2023-01-26T08:05:30.841Z,27.11
2023-01-26T08:06:30.877Z,27.10
2023-01-26T08:07:30.913Z,27.13
2023-01-26T08:08:30.986Z,27.13
2023-01-26T08:09:31.038Z,27.14
2023-01-26T08:10:31.114Z,27.15
2023-01-26T08:11:31.064Z,27.17
2023-01-26T08:12:31.096Z,27.14
2023-01-26T08:13:35.844Z,27.17
2023-01-26T08:14:45.897Z,27.17
2023-01-26T08:15:32.088Z,27.18
2023-01-26T08:16:31.151Z,27.20
2023-01-26T08:17:31.068Z,27.20
2023-01-26T08:18:31.116Z,27.20
2023-01-26T08:19:31.051Z,27.18
2023-01-26T08:20:31.070Z,27.21
2023-01-26T08:21:31.052Z,27.23
2023-01-26T08:22:31.036Z,27.20
2023-01-26T08:23:31.015Z,27.21
2023-01-26T08:24:31.002Z,27.21
2023-01-26T08:25:30.994Z,27.23
2023-01-26T08:26:30.990Z,27.21
2023-01-26T08:27:30.969Z,27.24
2023-01-26T08:28:30.915Z,27.20
2023-01-26T08:29:30.923Z,27.24
2023-01-26T08:30:30.909Z,27.23
2023-01-26T08:31:30.936Z,27.25
2023-01-26T08:32:30.861Z,27.25
2023-01-26T08:33:30.870Z,27.23
2023-01-26T08:34:30.865Z,27.24
2023-01-26T08:35:30.833Z,27.24
2023-01-26T08:36:30.822Z,27.25
2023-01-26T08:37:30.826Z,27.25
2023-01-26T08:38:30.806Z,27.24
2023-01-26T08:39:30.803Z,27.27
2023-01-26T08:40:30.798Z,27.28
2023-01-26T08:41:30.753Z,27.25
2023-01-26T08:42:30.753Z,27.28
2023-01-26T08:43:30.785Z,27.31
2023-01-26T08:44:30.747Z,27.30
2023-01-26T08:45:31.782Z,27.30
2023-01-26T08:46:30.729Z,27.33
2023-01-26T08:47:30.748Z,27.30
2023-01-26T08:48:30.811Z,27.31
2023-01-26T08:49:30.805Z,27.30
2023-01-26T08:50:30.880Z,27.30
2023-01-26T08:51:30.871Z,27.30
2023-01-26T08:52:30.942Z,27.31
2023-01-26T08:53:30.938Z,27.28
2023-01-26T08:54:31.083Z,27.31
2023-01-26T08:55:30.989Z,27.30
2023-01-26T08:56:31.047Z,27.28
2023-01-26T08:57:31.073Z,27.30
2023-01-26T08:58:32.155Z,27.30
2023-01-26T08:59:31.149Z,27.28
2023-01-26T09:00:31.250Z,27.27
2023-01-26T09:01:31.272Z,27.30
2023-01-26T09:02:31.335Z,27.30
2023-01-26T09:03:31.264Z,27.31
2023-01-26T09:04:31.289Z,27.28
2023-01-26T09:05:31.333Z,27.31
2023-01-26T09:06:31.294Z,27.31
2023-01-26T09:07:31.351Z,27.33
2023-01-26T09:08:31.416Z,27.30
2023-01-26T09:09:31.441Z,27.31
2023-01-26T09:10:31.449Z,27.31
2023-01-26T09:11:31.469Z,27.30
2023-01-26T09:12:31.486Z,27.30
2023-01-26T09:13:31.530Z,27.31
2023-01-26T09:14:31.555Z,27.33
2023-01-26T09:15:32.081Z,27.33
2023-01-26T09:16:31.629Z,27.31
2023-01-26T09:17:31.626Z,27.31
2023-01-26T09:18:31.702Z,27.33
2023-01-26T09:19:31.675Z,27.35
2023-01-26T09:20:31.710Z,27.33
2023-01-26T09:21:31.747Z,27.34
2023-01-26T09:22:31.789Z,27.33
2023-01-26T09:23:31.862Z,27.33
2023-01-26T09:24:31.861Z,27.35
2023-01-26T09:25:31.877Z,27.34
2023-01-26T09:26:31.892Z,27.34
2023-01-26T09:27:31.951Z,27.35
2023-01-26T09:28:32.015Z,27.33
2023-01-26T09:29:32.012Z,27.33
2023-01-26T09:30:32.157Z,27.33
2023-01-26T09:31:32.195Z,27.33
2023-01-26T09:32:32.077Z,27.33
2023-01-26T09:33:32.106Z,27.31
2023-01-26T09:34:32.140Z,27.30
2023-01-26T09:35:32.200Z,27.33
2023-01-26T09:36:32.211Z,27.34
2023-01-26T09:37:32.241Z,27.33
2023-01-26T09:38:32.240Z,27.34
2023-01-26T09:39:32.271Z,27.34
2023-01-26T09:40:32.309Z,27.34
2023-01-26T09:41:32.385Z,27.35
2023-01-26T09:42:32.387Z,27.37
2023-01-26T09:43:32.479Z,27.37
2023-01-26T09:44:32.415Z,27.37
2023-01-26T09:45:32.579Z,27.37
2023-01-26T09:46:32.499Z,27.37
2023-01-26T09:47:32.545Z,27.35
2023-01-26T09:48:32.546Z,27.35
2023-01-26T09:49:32.593Z,27.37
2023-01-26T09:50:32.639Z,27.34
2023-01-26T09:51:32.639Z,27.35
2023-01-26T09:52:32.638Z,27.35
2023-01-26T09:53:32.671Z,27.37
2023-01-26T09:54:32.693Z,27.34
2023-01-26T09:55:33.098Z,27.35
2023-01-26T09:56:32.782Z,27.35
2023-01-26T09:57:32.826Z,27.37
2023-01-26T09:58:32.796Z,27.40
2023-01-26T09:59:32.795Z,27.38
2023-01-26T10:00:32.831Z,27.40
2023-01-26T10:01:32.941Z,27.38
2023-01-26T10:02:32.917Z,27.40
2023-01-26T10:03:32.884Z,27.35
2023-01-26T10:04:32.898Z,27.38
2023-01-26T10:05:32.914Z,27.40
2023-01-26T10:06:32.948Z,27.40
2023-01-26T10:07:32.977Z,27.40
2023-01-26T10:08:32.986Z,27.37
2023-01-26T10:09:32.998Z,27.40
2023-01-26T10:10:33.037Z,27.37
2023-01-26T10:11:33.046Z,27.38
2023-01-26T10:12:33.070Z,27.38
2023-01-26T10:13:33.111Z,27.37
2023-01-26T10:14:33.142Z,27.37
2023-01-26T10:15:33.668Z,27.38
2023-01-26T10:16:33.188Z,27.41
2023-01-26T10:17:33.206Z,27.40
2023-01-26T10:18:33.237Z,27.37
2023-01-26T10:19:33.276Z,27.38
2023-01-26T10:20:33.311Z,27.37
2023-01-26T10:21:33.321Z,27.38
2023-01-26T10:22:33.325Z,27.37
2023-01-26T10:23:33.388Z,27.41
2023-01-26T10:24:33.380Z,27.40
2023-01-26T10:25:33.408Z,27.41
2023-01-26T10:26:33.439Z,27.40
2023-01-26T10:27:33.452Z,27.40
2023-01-26T10:28:33.454Z,27.41
2023-01-26T10:29:33.473Z,27.40
2023-01-26T10:30:34.076Z,27.42
2023-01-26T10:31:33.659Z,27.41
2023-01-26T10:32:33.524Z,27.40
2023-01-26T10:33:33.564Z,27.38
2023-01-26T10:34:33.580Z,27.40
2023-01-26T10:35:33.628Z,27.40
2023-01-26T10:36:34.145Z,27.40
2023-01-26T10:37:33.676Z,27.40
2023-01-26T10:38:33.679Z,27.41
2023-01-26T10:39:33.774Z,27.41
2023-01-26T10:40:33.721Z,27.40
2023-01-26T10:41:33.731Z,27.42
2023-01-26T10:42:33.789Z,27.42
2023-01-26T10:43:33.806Z,27.42
2023-01-26T10:44:33.844Z,27.44
2023-01-26T10:45:33.885Z,27.42
2023-01-26T10:46:33.913Z,27.44
2023-01-26T10:47:33.922Z,27.48
2023-01-26T10:48:33.899Z,27.45
2023-01-26T10:49:33.934Z,27.46
2023-01-26T10:50:33.942Z,27.45
2023-01-26T10:51:34.019Z,27.48
2023-01-26T10:52:33.997Z,27.46
2023-01-26T10:53:33.981Z,27.48
2023-01-26T10:54:33.999Z,27.48
2023-01-26T10:55:34.033Z,27.49
2023-01-26T10:56:34.043Z,27.49
2023-01-26T10:57:34.034Z,27.51
2023-01-26T10:58:34.223Z,27.48
2023-01-26T10:59:34.018Z,27.49
2023-01-26T11:00:34.076Z,27.48
2023-01-26T11:01:34.216Z,27.45
2023-01-26T11:02:34.108Z,27.42
2023-01-26T11:03:34.153Z,27.41
2023-01-26T11:04:34.190Z,27.42
2023-01-26T11:05:34.195Z,27.41
2023-01-26T11:06:34.227Z,27.42
2023-01-26T11:07:34.239Z,27.42
2023-01-26T11:08:34.261Z,27.41
2023-01-26T11:09:34.293Z,27.41
2023-01-26T11:10:34.344Z,27.44
2023-01-26T11:11:34.329Z,27.44
2023-01-26T11:12:34.364Z,27.44
2023-01-26T11:13:34.386Z,27.44
2023-01-26T11:14:34.397Z,27.44
2023-01-26T11:15:34.481Z,27.42
2023-01-26T11:28:34.756Z,27.35
2023-01-26T11:30:34.836Z,27.31
2023-01-26T11:31:34.869Z,27.35
2023-01-26T11:32:34.866Z,27.34
2023-01-26T11:33:34.866Z,27.31
2023-01-26T11:34:34.954Z,27.31
2023-01-26T11:38:35.013Z,27.33
2023-01-26T11:39:35.054Z,27.34
2023-01-26T11:40:35.045Z,27.33
2023-01-26T11:41:35.101Z,27.31
2023-01-26T11:42:35.164Z,27.31
2023-01-26T11:43:35.124Z,27.31
2023-01-26T11:44:35.183Z,27.34
2023-01-26T11:45:35.234Z,27.31
2023-01-26T11:46:35.256Z,27.30
2023-01-26T11:47:35.313Z,27.30
2023-01-26T11:48:35.269Z,27.27
2023-01-26T11:49:35.355Z,27.28
2023-01-26T11:50:35.411Z,27.30
2023-01-26T11:51:35.432Z,27.25
2023-01-26T11:52:35.430Z,27.28
2023-01-26T11:53:35.453Z,27.24
2023-01-26T11:54:35.489Z,27.24
2023-01-26T11:55:35.506Z,27.27
2023-01-26T11:56:35.532Z,27.25
2023-01-26T11:57:35.578Z,27.24
2023-01-26T11:58:35.607Z,27.27
2023-01-26T11:59:36.904Z,27.25
2023-01-26T12:00:35.627Z,27.25
2023-01-26T12:01:35.659Z,27.23
2023-01-26T12:03:35.743Z,27.21
2023-01-26T12:04:35.784Z,27.21
2023-01-26T12:05:35.799Z,27.21
2023-01-26T12:06:35.806Z,27.23
2023-01-26T12:07:35.813Z,27.23
2023-01-26T12:08:35.865Z,27.21
2023-01-26T12:09:35.893Z,27.18
2023-01-26T12:10:35.897Z,27.20
2023-01-26T12:11:35.924Z,27.18
2023-01-26T12:12:38.276Z,27.21
2023-01-26T12:13:35.979Z,27.18
2023-01-26T12:14:36.026Z,27.18
2023-01-26T12:15:36.033Z,27.18
2023-01-26T12:16:36.091Z,27.18
2023-01-26T12:17:36.191Z,27.21
2023-01-26T12:18:49.117Z,27.18
2023-01-26T12:19:37.119Z,27.18
2023-01-26T12:20:36.071Z,27.17
2023-01-26T12:21:36.079Z,27.17
2023-01-26T12:22:36.043Z,27.17
2023-01-26T12:23:36.017Z,27.13
2023-01-26T12:25:04.958Z,27.17
2023-01-26T12:25:37.537Z,27.14
2023-01-26T12:26:35.981Z,27.04
2023-01-26T12:27:36.022Z,27.04
2023-01-26T12:28:35.984Z,27.03
2023-01-26T12:29:35.992Z,27.03
2023-01-26T12:30:36.048Z,27.03
2023-01-26T12:31:36.199Z,27.04
2023-01-26T12:32:36.159Z,27.07
2023-01-26T12:33:35.927Z,27.04
2023-01-26T12:34:35.904Z,27.04
2023-01-26T12:35:35.913Z,27.08
2023-01-26T12:36:35.851Z,27.08
2023-01-26T12:37:35.882Z,27.10
2023-01-26T12:38:35.851Z,27.08
2023-01-26T12:39:37.861Z,27.11
2023-01-26T12:40:35.865Z,27.11
2023-01-26T12:41:35.851Z,27.14
2023-01-26T12:42:35.831Z,27.10
2023-01-26T12:43:35.825Z,27.14
2023-01-26T12:44:35.780Z,27.11
2023-01-26T12:45:35.809Z,27.11
2023-01-26T12:46:35.848Z,27.13
2023-01-26T12:47:35.781Z,27.14
2023-01-26T12:48:35.762Z,27.17
2023-01-26T12:49:35.935Z,27.15
2023-01-26T12:50:35.778Z,27.17
2023-01-26T12:51:35.763Z,27.14
2023-01-26T12:52:35.749Z,27.15
2023-01-26T12:53:37.838Z,27.15
2023-01-26T12:54:35.711Z,27.11
2023-01-26T12:55:35.704Z,27.14
2023-01-26T12:56:35.696Z,27.15
2023-01-26T12:57:35.679Z,27.13
2023-01-26T12:58:35.696Z,27.14
2023-01-26T12:59:47.815Z,27.15
2023-01-26T13:00:36.633Z,27.15
2023-01-26T13:01:35.643Z,27.14
2023-01-26T13:02:35.699Z,27.15
2023-01-26T13:03:35.673Z,27.11
2023-01-26T13:04:35.572Z,27.11
2023-01-26T13:05:35.587Z,27.10
2023-01-26T13:06:35.565Z,27.07
2023-01-26T13:07:35.591Z,27.08
2023-01-26T13:08:35.539Z,27.04
2023-01-26T13:09:35.551Z,27.05
2023-01-26T13:10:35.516Z,27.05
2023-01-26T13:11:35.569Z,27.07
2023-01-26T13:12:35.674Z,27.03
2023-01-26T13:13:35.629Z,27.04
2023-01-26T13:14:35.653Z,27.03
2023-01-26T13:15:35.744Z,27.04
2023-01-26T13:16:35.734Z,27.03
2023-01-26T13:17:35.757Z,27.03
2023-01-26T13:18:35.779Z,27.03
2023-01-26T13:19:35.833Z,27.04